sensor_id;sensor_type;location;lat;lon;timestamp;P1;durP1;ratioP1;P2;durP2;ratioP2
76701;SDS011;65630;44.498;0.166;2022-12-31T00:10:00;14.83;;;6.77;;
76701;SDS011;65630;44.498;0.166;2022-12-31T00:23:50;12.10;;;6.67;;
76701;SDS011;65630;44.498;0.166;2022-12-31T00:37:40;21.57;;;6.53;;
76701;SDS011;65630;44.498;0.166;2022-12-31T00:51:30;15.47;;;7.60;;
76701;SDS011;65630;44.498;0.166;2022-12-31T01:05:21;11.00;;;6.57;;
76701;SDS011;65630;44.498;0.166;2022-12-31T01:19:12;14.40;;;6.80;;
76701;SDS011;65630;44.498;0.166;2022-12-31T01:33:02;16.87;;;8.37;;
76701;SDS011;65630;44.498;0.166;2022-12-31T01:46:54;13.13;;;7.83;;
76701;SDS011;65630;44.498;0.166;2022-12-31T02:00:45;17.03;;;8.10;;
76701;SDS011;65630;44.498;0.166;2022-12-31T02:14:36;13.43;;;8.23;;
76701;SDS011;65630;44.498;0.166;2022-12-31T02:28:30;15.07;;;7.57;;
76701;SDS011;65630;44.498;0.166;2022-12-31T02:42:17;15.23;;;9.23;;
76701;SDS011;65630;44.498;0.166;2022-12-31T02:56:11;14.80;;;9.23;;
76701;SDS011;65630;44.498;0.166;2022-12-31T03:10:00;16.57;;;9.73;;
76701;SDS011;65630;44.498;0.166;2022-12-31T03:23:49;14.83;;;9.20;;
76701;SDS011;65630;44.498;0.166;2022-12-31T03:37:41;19.20;;;9.20;;
76701;SDS011;65630;44.498;0.166;2022-12-31T03:51:30;21.30;;;9.13;;
76701;SDS011;65630;44.498;0.166;2022-12-31T04:05:22;18.37;;;9.53;;
76701;SDS011;65630;44.498;0.166;2022-12-31T04:19:13;17.50;;;9.10;;
76701;SDS011;65630;44.498;0.166;2022-12-31T04:33:04;16.93;;;9.90;;
76701;SDS011;65630;44.498;0.166;2022-12-31T04:46:55;19.77;;;8.90;;
76701;SDS011;65630;44.498;0.166;2022-12-31T05:00:45;14.77;;;8.10;;
76701;SDS011;65630;44.498;0.166;2022-12-31T05:28:27;22.60;;;10.90;;
76701;SDS011;65630;44.498;0.166;2022-12-31T05:42:23;18.13;;;10.63;;
76701;SDS011;65630;44.498;0.166;2022-12-31T05:56:08;19.63;;;10.40;;
76701;SDS011;65630;44.498;0.166;2022-12-31T06:09:59;14.83;;;10.17;;
76701;SDS011;65630;44.498;0.166;2022-12-31T06:23:48;25.70;;;12.53;;
76701;SDS011;65630;44.498;0.166;2022-12-31T06:37:40;24.87;;;14.40;;
76701;SDS011;65630;44.498;0.166;2022-12-31T06:51:29;20.10;;;11.43;;
76701;SDS011;65630;44.498;0.166;2022-12-31T07:05:26;29.73;;;13.87;;
76701;SDS011;65630;44.498;0.166;2022-12-31T07:19:16;40.63;;;14.33;;
76701;SDS011;65630;44.498;0.166;2022-12-31T07:33:10;22.87;;;11.63;;
76701;SDS011;65630;44.498;0.166;2022-12-31T07:46:53;46.57;;;21.40;;
76701;SDS011;65630;44.498;0.166;2022-12-31T08:00:46;37.23;;;19.67;;
76701;SDS011;65630;44.498;0.166;2022-12-31T08:28:31;24.57;;;13.33;;
76701;SDS011;65630;44.498;0.166;2022-12-31T08:42:21;36.20;;;14.27;;
76701;SDS011;65630;44.498;0.166;2022-12-31T08:56:12;20.63;;;11.27;;
76701;SDS011;65630;44.498;0.166;2022-12-31T09:10:03;22.43;;;10.00;;
76701;SDS011;65630;44.498;0.166;2022-12-31T09:23:53;16.30;;;7.00;;
76701;SDS011;65630;44.498;0.166;2022-12-31T09:37:47;-1.00;;;-1.00;;
76701;SDS011;65630;44.498;0.166;2022-12-31T09:51:37;15.60;;;6.47;;
76701;SDS011;65630;44.498;0.166;2022-12-31T10:05:34;14.03;;;5.43;;
76701;SDS011;65630;44.498;0.166;2022-12-31T10:19:29;14.27;;;6.10;;
76701;SDS011;65630;44.498;0.166;2022-12-31T10:33:14;10.97;;;5.37;;
76701;SDS011;65630;44.498;0.166;2022-12-31T10:47:13;15.17;;;6.23;;
76701;SDS011;65630;44.498;0.166;2022-12-31T11:00:55;9.73;;;4.97;;
76701;SDS011;65630;44.498;0.166;2022-12-31T11:28:42;14.43;;;4.60;;
76701;SDS011;65630;44.498;0.166;2022-12-31T11:42:34;12.17;;;4.83;;
76701;SDS011;65630;44.498;0.166;2022-12-31T11:56:21;8.17;;;3.53;;
76701;SDS011;65630;44.498;0.166;2022-12-31T12:10:16;7.40;;;3.70;;
76701;SDS011;65630;44.498;0.166;2022-12-31T12:24:04;6.60;;;3.97;;
76701;SDS011;65630;44.498;0.166;2022-12-31T12:37:59;10.00;;;4.33;;
76701;SDS011;65630;44.498;0.166;2022-12-31T12:51:44;15.17;;;8.23;;
76701;SDS011;65630;44.498;0.166;2022-12-31T13:05:30;9.17;;;4.80;;
76701;SDS011;65630;44.498;0.166;2022-12-31T13:19:18;10.53;;;4.47;;
76701;SDS011;65630;44.498;0.166;2022-12-31T13:33:15;11.53;;;3.90;;
76701;SDS011;65630;44.498;0.166;2022-12-31T13:47:03;8.43;;;4.03;;
76701;SDS011;65630;44.498;0.166;2022-12-31T14:00:52;9.80;;;3.70;;
76701;SDS011;65630;44.498;0.166;2022-12-31T14:14:45;6.27;;;3.07;;
76701;SDS011;65630;44.498;0.166;2022-12-31T14:28:37;4.87;;;2.77;;
76701;SDS011;65630;44.498;0.166;2022-12-31T14:42:27;9.80;;;2.80;;
76701;SDS011;65630;44.498;0.166;2022-12-31T15:10:09;6.13;;;3.60;;
76701;SDS011;65630;44.498;0.166;2022-12-31T15:23:56;5.57;;;3.53;;
76701;SDS011;65630;44.498;0.166;2022-12-31T15:37:55;10.33;;;3.43;;
76701;SDS011;65630;44.498;0.166;2022-12-31T15:51:40;8.13;;;3.30;;
76701;SDS011;65630;44.498;0.166;2022-12-31T16:05:26;12.37;;;4.13;;
76701;SDS011;65630;44.498;0.166;2022-12-31T16:19:20;8.03;;;4.33;;
76701;SDS011;65630;44.498;0.166;2022-12-31T16:33:03;14.17;;;4.60;;
76701;SDS011;65630;44.498;0.166;2022-12-31T16:46:54;10.07;;;5.27;;
76701;SDS011;65630;44.498;0.166;2022-12-31T17:00:42;11.70;;;5.67;;
76701;SDS011;65630;44.498;0.166;2022-12-31T17:14:33;19.13;;;6.77;;
76701;SDS011;65630;44.498;0.166;2022-12-31T17:28:23;15.23;;;6.30;;
76701;SDS011;65630;44.498;0.166;2022-12-31T17:42:13;16.87;;;9.43;;
76701;SDS011;65630;44.498;0.166;2022-12-31T17:56:04;16.00;;;6.20;;
76701;SDS011;65630;44.498;0.166;2022-12-31T18:09:53;19.40;;;7.53;;
76701;SDS011;65630;44.498;0.166;2022-12-31T18:23:45;15.20;;;6.30;;
76701;SDS011;65630;44.498;0.166;2022-12-31T18:37:36;18.53;;;6.20;;
76701;SDS011;65630;44.498;0.166;2022-12-31T18:51:27;17.07;;;6.50;;
76701;SDS011;65630;44.498;0.166;2022-12-31T19:05:19;12.70;;;5.60;;
76701;SDS011;65630;44.498;0.166;2022-12-31T19:19:08;17.03;;;6.50;;
76701;SDS011;65630;44.498;0.166;2022-12-31T19:32:59;23.00;;;7.77;;
76701;SDS011;65630;44.498;0.166;2022-12-31T19:46:49;18.90;;;8.00;;
76701;SDS011;65630;44.498;0.166;2022-12-31T20:00:40;23.73;;;8.23;;
76701;SDS011;65630;44.498;0.166;2022-12-31T20:14:32;26.53;;;8.93;;
76701;SDS011;65630;44.498;0.166;2022-12-31T20:28:23;23.37;;;9.17;;
76701;SDS011;65630;44.498;0.166;2022-12-31T20:42:13;18.93;;;9.10;;
76701;SDS011;65630;44.498;0.166;2022-12-31T20:56:03;16.50;;;10.30;;
76701;SDS011;65630;44.498;0.166;2022-12-31T21:23:44;29.37;;;12.13;;
76701;SDS011;65630;44.498;0.166;2022-12-31T21:37:35;26.77;;;12.40;;
76701;SDS011;65630;44.498;0.166;2022-12-31T21:51:24;22.87;;;11.00;;
76701;SDS011;65630;44.498;0.166;2022-12-31T22:05:15;19.17;;;10.47;;
76701;SDS011;65630;44.498;0.166;2022-12-31T22:19:06;29.63;;;10.73;;
76701;SDS011;65630;44.498;0.166;2022-12-31T22:32:57;22.20;;;10.13;;
76701;SDS011;65630;44.498;0.166;2022-12-31T22:46:48;22.83;;;10.50;;
76701;SDS011;65630;44.498;0.166;2022-12-31T23:00:42;16.40;;;10.27;;
76701;SDS011;65630;44.498;0.166;2022-12-31T23:14:27;17.80;;;8.57;;
76701;SDS011;65630;44.498;0.166;2022-12-31T23:28:18;26.63;;;11.23;;
76701;SDS011;65630;44.498;0.166;2022-12-31T23:42:08;22.30;;;9.73;;
76701;SDS011;65630;44.498;0.166;2022-12-31T23:56:03;20.23;;;8.97;;
